sensor_id;sensor_type;location;lat;lon;timestamp;P1;durP1;ratioP1;P2;durP2;ratioP2
51489;SDS011;57752;53.574;9.736;2023-02-21T00:02:21;25.65;;;10.48;;
51489;SDS011;57752;53.574;9.736;2023-02-21T00:07:40;21.15;;;7.15;;
51489;SDS011;57752;53.574;9.736;2023-02-21T00:12:59;16.13;;;6.15;;
51489;SDS011;57752;53.574;9.736;2023-02-21T00:18:17;23.48;;;13.25;;
51489;SDS011;57752;53.574;9.736;2023-02-21T00:23:36;25.75;;;11.82;;
51489;SDS011;57752;53.574;9.736;2023-02-21T00:28:55;18.40;;;6.10;;
51489;SDS011;57752;53.574;9.736;2023-02-21T00:34:14;15.20;;;4.97;;
51489;SDS011;57752;53.574;9.736;2023-02-21T00:39:33;15.57;;;6.30;;
51489;SDS011;57752;53.574;9.736;2023-02-21T00:44:52;18.65;;;8.73;;
51489;SDS011;57752;53.574;9.736;2023-02-21T00:50:12;25.00;;;12.50;;
51489;SDS011;57752;53.574;9.736;2023-02-21T00:55:31;16.90;;;7.30;;
51489;SDS011;57752;53.574;9.736;2023-02-21T01:00:50;12.10;;;4.22;;
51489;SDS011;57752;53.574;9.736;2023-02-21T01:06:09;15.40;;;4.75;;
51489;SDS011;57752;53.574;9.736;2023-02-21T01:11:28;13.77;;;4.50;;
51489;SDS011;57752;53.574;9.736;2023-02-21T01:16:47;13.27;;;4.25;;
51489;SDS011;57752;53.574;9.736;2023-02-21T01:22:06;13.75;;;5.68;;
51489;SDS011;57752;53.574;9.736;2023-02-21T01:27:25;18.73;;;4.72;;
51489;SDS011;57752;53.574;9.736;2023-02-21T01:32:44;22.40;;;9.35;;
51489;SDS011;57752;53.574;9.736;2023-02-21T01:38:03;24.83;;;9.02;;
51489;SDS011;57752;53.574;9.736;2023-02-21T01:43:22;20.45;;;9.85;;
51489;SDS011;57752;53.574;9.736;2023-02-21T01:48:41;27.70;;;10.25;;
51489;SDS011;57752;53.574;9.736;2023-02-21T01:54:00;28.70;;;9.68;;
51489;SDS011;57752;53.574;9.736;2023-02-21T01:59:20;24.75;;;9.35;;
51489;SDS011;57752;53.574;9.736;2023-02-21T02:04:40;22.85;;;8.38;;
51489;SDS011;57752;53.574;9.736;2023-02-21T02:09:59;22.05;;;7.25;;
51489;SDS011;57752;53.574;9.736;2023-02-21T02:15:37;32.65;;;14.45;;
51489;SDS011;57752;53.574;9.736;2023-02-21T02:20:51;23.52;;;8.80;;
51489;SDS011;57752;53.574;9.736;2023-02-21T02:26:17;29.35;;;7.88;;
51489;SDS011;57752;53.574;9.736;2023-02-21T02:31:27;25.08;;;9.18;;
51489;SDS011;57752;53.574;9.736;2023-02-21T02:36:38;26.83;;;10.73;;
51489;SDS011;57752;53.574;9.736;2023-02-21T02:46:46;18.98;;;7.38;;
51489;SDS011;57752;53.574;9.736;2023-02-21T02:51:47;28.40;;;12.38;;
51489;SDS011;57752;53.574;9.736;2023-02-21T02:56:48;24.83;;;11.52;;
51489;SDS011;57752;53.574;9.736;2023-02-21T03:17:08;22.00;;;12.93;;
51489;SDS011;57752;53.574;9.736;2023-02-21T03:22:11;16.90;;;6.07;;
51489;SDS011;57752;53.574;9.736;2023-02-21T03:27:13;20.88;;;5.72;;
51489;SDS011;57752;53.574;9.736;2023-02-21T03:32:21;22.52;;;10.15;;
51489;SDS011;57752;53.574;9.736;2023-02-21T03:37:31;25.17;;;12.02;;
51489;SDS011;57752;53.574;9.736;2023-02-21T03:42:31;18.90;;;5.45;;
51489;SDS011;57752;53.574;9.736;2023-02-21T03:47:32;14.98;;;6.60;;
51489;SDS011;57752;53.574;9.736;2023-02-21T03:52:32;20.42;;;5.85;;
51489;SDS011;57752;53.574;9.736;2023-02-21T03:57:32;18.53;;;6.67;;
51489;SDS011;57752;53.574;9.736;2023-02-21T04:02:32;13.77;;;4.10;;
51489;SDS011;57752;53.574;9.736;2023-02-21T04:07:32;15.90;;;5.05;;
51489;SDS011;57752;53.574;9.736;2023-02-21T04:12:33;22.40;;;8.45;;
51489;SDS011;57752;53.574;9.736;2023-02-21T04:17:33;15.43;;;5.03;;
51489;SDS011;57752;53.574;9.736;2023-02-21T04:22:33;13.32;;;4.35;;
51489;SDS011;57752;53.574;9.736;2023-02-21T04:27:33;13.77;;;4.72;;
51489;SDS011;57752;53.574;9.736;2023-02-21T04:32:33;15.77;;;4.75;;
51489;SDS011;57752;53.574;9.736;2023-02-21T04:37:34;20.33;;;6.32;;
51489;SDS011;57752;53.574;9.736;2023-02-21T04:42:34;22.02;;;4.68;;
51489;SDS011;57752;53.574;9.736;2023-02-21T04:47:34;17.75;;;3.75;;
51489;SDS011;57752;53.574;9.736;2023-02-21T04:52:34;21.80;;;5.65;;
51489;SDS011;57752;53.574;9.736;2023-02-21T04:57:34;24.40;;;5.30;;
51489;SDS011;57752;53.574;9.736;2023-02-21T05:02:34;25.50;;;7.07;;
51489;SDS011;57752;53.574;9.736;2023-02-21T05:07:35;23.70;;;4.50;;
51489;SDS011;57752;53.574;9.736;2023-02-21T05:12:35;21.70;;;7.65;;
51489;SDS011;57752;53.574;9.736;2023-02-21T05:17:38;21.95;;;3.92;;
51489;SDS011;57752;53.574;9.736;2023-02-21T05:22:38;19.95;;;4.22;;
51489;SDS011;57752;53.574;9.736;2023-02-21T05:27:39;20.33;;;5.55;;
51489;SDS011;57752;53.574;9.736;2023-02-21T05:32:39;26.80;;;4.85;;
51489;SDS011;57752;53.574;9.736;2023-02-21T05:37:39;25.02;;;5.75;;
51489;SDS011;57752;53.574;9.736;2023-02-21T05:42:41;24.08;;;5.53;;
51489;SDS011;57752;53.574;9.736;2023-02-21T05:47:41;20.60;;;4.47;;
51489;SDS011;57752;53.574;9.736;2023-02-21T05:52:41;23.52;;;4.85;;
51489;SDS011;57752;53.574;9.736;2023-02-21T05:57:41;21.17;;;5.28;;
51489;SDS011;57752;53.574;9.736;2023-02-21T06:02:41;26.45;;;4.82;;
51489;SDS011;57752;53.574;9.736;2023-02-21T06:07:41;24.20;;;5.03;;
51489;SDS011;57752;53.574;9.736;2023-02-21T06:12:42;24.13;;;5.45;;
51489;SDS011;57752;53.574;9.736;2023-02-21T06:17:42;23.48;;;5.30;;
51489;SDS011;57752;53.574;9.736;2023-02-21T06:22:43;24.02;;;4.80;;
51489;SDS011;57752;53.574;9.736;2023-02-21T06:27:43;26.30;;;5.18;;
51489;SDS011;57752;53.574;9.736;2023-02-21T06:32:43;24.17;;;4.80;;
51489;SDS011;57752;53.574;9.736;2023-02-21T06:37:43;26.85;;;5.47;;
51489;SDS011;57752;53.574;9.736;2023-02-21T06:42:43;21.35;;;4.80;;
51489;SDS011;57752;53.574;9.736;2023-02-21T06:47:43;19.33;;;4.75;;
51489;SDS011;57752;53.574;9.736;2023-02-21T06:52:44;26.42;;;6.20;;
51489;SDS011;57752;53.574;9.736;2023-02-21T06:57:44;19.75;;;5.35;;
51489;SDS011;57752;53.574;9.736;2023-02-21T07:02:44;25.50;;;5.85;;
51489;SDS011;57752;53.574;9.736;2023-02-21T07:07:44;25.00;;;5.57;;
51489;SDS011;57752;53.574;9.736;2023-02-21T07:12:44;21.43;;;5.77;;
51489;SDS011;57752;53.574;9.736;2023-02-21T07:17:44;25.65;;;5.93;;
51489;SDS011;57752;53.574;9.736;2023-02-21T07:22:45;24.02;;;5.80;;
51489;SDS011;57752;53.574;9.736;2023-02-21T07:27:45;28.67;;;7.82;;
51489;SDS011;57752;53.574;9.736;2023-02-21T07:32:46;26.40;;;5.28;;
51489;SDS011;57752;53.574;9.736;2023-02-21T07:37:46;20.17;;;5.35;;
51489;SDS011;57752;53.574;9.736;2023-02-21T07:42:46;21.33;;;6.32;;
51489;SDS011;57752;53.574;9.736;2023-02-21T07:52:50;17.08;;;5.90;;
51489;SDS011;57752;53.574;9.736;2023-02-21T07:57:50;23.25;;;5.43;;
51489;SDS011;57752;53.574;9.736;2023-02-21T08:02:51;25.63;;;6.22;;
51489;SDS011;57752;53.574;9.736;2023-02-21T08:07:51;25.55;;;6.13;;
51489;SDS011;57752;53.574;9.736;2023-02-21T08:12:52;22.05;;;5.68;;
51489;SDS011;57752;53.574;9.736;2023-02-21T08:17:52;28.13;;;7.20;;
51489;SDS011;57752;53.574;9.736;2023-02-21T08:22:52;30.58;;;8.90;;
51489;SDS011;57752;53.574;9.736;2023-02-21T08:27:52;29.70;;;9.15;;
51489;SDS011;57752;53.574;9.736;2023-02-21T08:32:54;25.90;;;5.80;;
51489;SDS011;57752;53.574;9.736;2023-02-21T08:37:54;25.73;;;6.28;;
51489;SDS011;57752;53.574;9.736;2023-02-21T08:42:56;24.10;;;6.00;;
51489;SDS011;57752;53.574;9.736;2023-02-21T08:47:57;23.40;;;5.90;;
51489;SDS011;57752;53.574;9.736;2023-02-21T08:52:57;28.17;;;5.57;;
51489;SDS011;57752;53.574;9.736;2023-02-21T08:57:57;20.88;;;5.65;;
51489;SDS011;57752;53.574;9.736;2023-02-21T09:02:57;21.92;;;6.18;;
51489;SDS011;57752;53.574;9.736;2023-02-21T09:07:59;22.35;;;5.60;;
51489;SDS011;57752;53.574;9.736;2023-02-21T09:13:00;22.58;;;6.00;;
51489;SDS011;57752;53.574;9.736;2023-02-21T09:18:01;22.75;;;5.43;;
51489;SDS011;57752;53.574;9.736;2023-02-21T09:23:01;24.15;;;4.93;;
51489;SDS011;57752;53.574;9.736;2023-02-21T09:28:01;28.23;;;5.03;;
51489;SDS011;57752;53.574;9.736;2023-02-21T09:33:01;20.52;;;5.22;;
51489;SDS011;57752;53.574;9.736;2023-02-21T09:38:02;21.25;;;5.03;;
51489;SDS011;57752;53.574;9.736;2023-02-21T09:43:02;21.42;;;4.45;;
51489;SDS011;57752;53.574;9.736;2023-02-21T09:48:05;24.13;;;4.82;;
51489;SDS011;57752;53.574;9.736;2023-02-21T09:53:07;20.02;;;4.47;;
51489;SDS011;57752;53.574;9.736;2023-02-21T09:58:13;23.75;;;4.72;;
51489;SDS011;57752;53.574;9.736;2023-02-21T10:23:41;18.38;;;4.32;;
51489;SDS011;57752;53.574;9.736;2023-02-21T10:28:42;20.95;;;7.50;;
51489;SDS011;57752;53.574;9.736;2023-02-21T10:33:42;22.13;;;4.55;;
51489;SDS011;57752;53.574;9.736;2023-02-21T10:38:45;18.58;;;4.05;;
51489;SDS011;57752;53.574;9.736;2023-02-21T10:43:47;16.50;;;3.58;;
51489;SDS011;57752;53.574;9.736;2023-02-21T10:48:50;21.50;;;4.05;;
51489;SDS011;57752;53.574;9.736;2023-02-21T10:53:51;19.30;;;4.50;;
51489;SDS011;57752;53.574;9.736;2023-02-21T11:03:52;17.73;;;3.58;;
51489;SDS011;57752;53.574;9.736;2023-02-21T11:08:54;15.33;;;3.77;;
51489;SDS011;57752;53.574;9.736;2023-02-21T11:14:04;13.82;;;3.65;;
51489;SDS011;57752;53.574;9.736;2023-02-21T11:19:06;13.95;;;3.40;;
51489;SDS011;57752;53.574;9.736;2023-02-21T11:24:06;16.02;;;3.85;;
51489;SDS011;57752;53.574;9.736;2023-02-21T11:29:10;18.35;;;4.40;;
51489;SDS011;57752;53.574;9.736;2023-02-21T11:34:12;13.93;;;4.28;;
51489;SDS011;57752;53.574;9.736;2023-02-21T11:39:15;14.68;;;4.15;;
51489;SDS011;57752;53.574;9.736;2023-02-21T11:50:00;12.77;;;4.00;;
51489;SDS011;57752;53.574;9.736;2023-02-21T11:54:55;14.52;;;4.32;;
51489;SDS011;57752;53.574;9.736;2023-02-21T12:10:20;16.65;;;4.70;;
51489;SDS011;57752;53.574;9.736;2023-02-21T12:51:24;11.68;;;3.83;;
51489;SDS011;57752;53.574;9.736;2023-02-21T12:56:27;17.88;;;3.90;;
51489;SDS011;57752;53.574;9.736;2023-02-21T13:01:30;17.92;;;4.18;;
51489;SDS011;57752;53.574;9.736;2023-02-21T13:06:33;14.75;;;3.65;;
51489;SDS011;57752;53.574;9.736;2023-02-21T13:16:34;14.77;;;4.13;;
51489;SDS011;57752;53.574;9.736;2023-02-21T13:21:40;19.08;;;3.53;;
51489;SDS011;57752;53.574;9.736;2023-02-21T13:26:48;13.90;;;3.60;;
51489;SDS011;57752;53.574;9.736;2023-02-21T13:31:56;17.95;;;3.97;;
51489;SDS011;57752;53.574;9.736;2023-02-21T13:37:01;15.00;;;3.53;;
51489;SDS011;57752;53.574;9.736;2023-02-21T13:42:07;14.00;;;3.50;;
51489;SDS011;57752;53.574;9.736;2023-02-21T13:47:09;13.68;;;3.65;;
51489;SDS011;57752;53.574;9.736;2023-02-21T13:57:30;17.50;;;3.50;;
51489;SDS011;57752;53.574;9.736;2023-02-21T14:02:31;13.82;;;3.30;;
51489;SDS011;57752;53.574;9.736;2023-02-21T14:07:43;13.40;;;3.42;;
51489;SDS011;57752;53.574;9.736;2023-02-21T14:12:44;14.40;;;3.25;;
51489;SDS011;57752;53.574;9.736;2023-02-21T14:17:45;14.93;;;4.07;;
51489;SDS011;57752;53.574;9.736;2023-02-21T14:22:48;17.80;;;3.58;;
51489;SDS011;57752;53.574;9.736;2023-02-21T14:27:48;16.40;;;3.83;;
51489;SDS011;57752;53.574;9.736;2023-02-21T14:32:50;15.60;;;3.53;;
51489;SDS011;57752;53.574;9.736;2023-02-21T14:37:53;12.65;;;2.92;;
51489;SDS011;57752;53.574;9.736;2023-02-21T14:58:42;13.55;;;2.75;;
51489;SDS011;57752;53.574;9.736;2023-02-21T15:03:47;12.75;;;2.90;;
51489;SDS011;57752;53.574;9.736;2023-02-21T15:08:50;11.70;;;2.90;;
51489;SDS011;57752;53.574;9.736;2023-02-21T15:14:37;9.65;;;2.25;;
51489;SDS011;57752;53.574;9.736;2023-02-21T15:19:20;15.45;;;3.47;;
51489;SDS011;57752;53.574;9.736;2023-02-21T15:24:20;11.68;;;2.35;;
51489;SDS011;57752;53.574;9.736;2023-02-21T15:29:21;11.20;;;2.85;;
51489;SDS011;57752;53.574;9.736;2023-02-21T15:34:23;14.05;;;2.92;;
51489;SDS011;57752;53.574;9.736;2023-02-21T15:39:34;15.23;;;3.67;;
51489;SDS011;57752;53.574;9.736;2023-02-21T15:44:46;18.73;;;3.33;;
51489;SDS011;57752;53.574;9.736;2023-02-21T15:49:56;18.90;;;3.70;;
51489;SDS011;57752;53.574;9.736;2023-02-21T16:05:32;14.57;;;3.33;;
51489;SDS011;57752;53.574;9.736;2023-02-21T16:10:32;14.60;;;3.90;;
51489;SDS011;57752;53.574;9.736;2023-02-21T16:15:33;14.02;;;3.75;;
51489;SDS011;57752;53.574;9.736;2023-02-21T16:20:35;19.60;;;4.00;;
51489;SDS011;57752;53.574;9.736;2023-02-21T16:25:53;17.75;;;4.60;;
51489;SDS011;57752;53.574;9.736;2023-02-21T16:30:53;17.92;;;4.97;;
51489;SDS011;57752;53.574;9.736;2023-02-21T16:35:57;15.48;;;4.47;;
51489;SDS011;57752;53.574;9.736;2023-02-21T16:40:57;14.43;;;4.57;;
51489;SDS011;57752;53.574;9.736;2023-02-21T16:45:58;15.80;;;4.47;;
51489;SDS011;57752;53.574;9.736;2023-02-21T16:50:59;14.38;;;4.47;;
51489;SDS011;57752;53.574;9.736;2023-02-21T16:56:01;18.00;;;4.90;;
51489;SDS011;57752;53.574;9.736;2023-02-21T17:01:11;17.13;;;6.07;;
51489;SDS011;57752;53.574;9.736;2023-02-21T17:06:16;20.40;;;6.88;;
51489;SDS011;57752;53.574;9.736;2023-02-21T17:11:17;22.67;;;7.00;;
51489;SDS011;57752;53.574;9.736;2023-02-21T17:16:17;20.00;;;6.65;;
51489;SDS011;57752;53.574;9.736;2023-02-21T17:21:18;19.73;;;7.20;;
51489;SDS011;57752;53.574;9.736;2023-02-21T17:26:18;19.38;;;6.70;;
51489;SDS011;57752;53.574;9.736;2023-02-21T17:31:18;21.13;;;7.82;;
51489;SDS011;57752;53.574;9.736;2023-02-21T17:36:19;19.42;;;7.80;;
51489;SDS011;57752;53.574;9.736;2023-02-21T17:41:20;19.95;;;8.25;;
51489;SDS011;57752;53.574;9.736;2023-02-21T17:46:20;20.35;;;7.97;;
51489;SDS011;57752;53.574;9.736;2023-02-21T17:51:22;18.67;;;7.63;;
51489;SDS011;57752;53.574;9.736;2023-02-21T17:56:23;22.83;;;8.18;;
51489;SDS011;57752;53.574;9.736;2023-02-21T18:01:23;18.65;;;7.50;;
51489;SDS011;57752;53.574;9.736;2023-02-21T18:06:24;24.85;;;9.10;;
51489;SDS011;57752;53.574;9.736;2023-02-21T18:11:24;21.20;;;9.27;;
51489;SDS011;57752;53.574;9.736;2023-02-21T18:16:24;26.17;;;10.85;;
51489;SDS011;57752;53.574;9.736;2023-02-21T18:21:25;36.03;;;17.30;;
51489;SDS011;57752;53.574;9.736;2023-02-21T18:26:26;29.23;;;12.30;;
51489;SDS011;57752;53.574;9.736;2023-02-21T18:31:26;30.88;;;13.77;;
51489;SDS011;57752;53.574;9.736;2023-02-21T18:36:27;30.60;;;15.68;;
51489;SDS011;57752;53.574;9.736;2023-02-21T18:41:27;33.97;;;13.70;;
51489;SDS011;57752;53.574;9.736;2023-02-21T18:46:27;32.75;;;13.23;;
51489;SDS011;57752;53.574;9.736;2023-02-21T18:51:27;34.17;;;13.60;;
51489;SDS011;57752;53.574;9.736;2023-02-21T18:56:28;34.03;;;15.25;;
51489;SDS011;57752;53.574;9.736;2023-02-21T19:01:28;35.70;;;14.47;;
51489;SDS011;57752;53.574;9.736;2023-02-21T19:06:28;47.30;;;20.67;;
51489;SDS011;57752;53.574;9.736;2023-02-21T19:11:30;36.17;;;14.80;;
51489;SDS011;57752;53.574;9.736;2023-02-21T19:16:31;40.88;;;16.60;;
51489;SDS011;57752;53.574;9.736;2023-02-21T19:21:31;36.70;;;14.50;;
51489;SDS011;57752;53.574;9.736;2023-02-21T19:26:32;39.40;;;13.75;;
51489;SDS011;57752;53.574;9.736;2023-02-21T19:31:32;38.88;;;15.02;;
51489;SDS011;57752;53.574;9.736;2023-02-21T19:36:33;38.55;;;15.65;;
51489;SDS011;57752;53.574;9.736;2023-02-21T19:41:33;37.92;;;14.30;;
51489;SDS011;57752;53.574;9.736;2023-02-21T19:46:35;36.60;;;14.50;;
51489;SDS011;57752;53.574;9.736;2023-02-21T19:51:35;36.53;;;14.40;;
51489;SDS011;57752;53.574;9.736;2023-02-21T19:56:35;36.40;;;14.23;;
51489;SDS011;57752;53.574;9.736;2023-02-21T20:01:35;32.03;;;13.65;;
51489;SDS011;57752;53.574;9.736;2023-02-21T20:06:36;34.47;;;12.52;;
51489;SDS011;57752;53.574;9.736;2023-02-21T20:11:36;37.50;;;12.25;;
51489;SDS011;57752;53.574;9.736;2023-02-21T20:16:39;34.72;;;13.23;;
51489;SDS011;57752;53.574;9.736;2023-02-21T20:21:40;37.47;;;13.13;;
51489;SDS011;57752;53.574;9.736;2023-02-21T20:26:41;32.92;;;12.63;;
51489;SDS011;57752;53.574;9.736;2023-02-21T20:31:41;38.72;;;15.15;;
51489;SDS011;57752;53.574;9.736;2023-02-21T20:36:42;51.40;;;17.65;;
51489;SDS011;57752;53.574;9.736;2023-02-21T20:41:44;42.35;;;15.70;;
51489;SDS011;57752;53.574;9.736;2023-02-21T20:46:44;42.17;;;15.75;;
51489;SDS011;57752;53.574;9.736;2023-02-21T20:51:44;34.25;;;13.10;;
51489;SDS011;57752;53.574;9.736;2023-02-21T20:56:45;34.67;;;12.10;;
51489;SDS011;57752;53.574;9.736;2023-02-21T21:01:45;32.47;;;11.93;;
51489;SDS011;57752;53.574;9.736;2023-02-21T21:06:48;38.40;;;12.45;;
51489;SDS011;57752;53.574;9.736;2023-02-21T21:11:49;36.20;;;12.00;;
51489;SDS011;57752;53.574;9.736;2023-02-21T21:21:52;36.25;;;12.30;;
51489;SDS011;57752;53.574;9.736;2023-02-21T21:26:52;39.28;;;14.15;;
51489;SDS011;57752;53.574;9.736;2023-02-21T21:31:53;46.80;;;15.02;;
51489;SDS011;57752;53.574;9.736;2023-02-21T21:37:00;42.97;;;13.82;;
51489;SDS011;57752;53.574;9.736;2023-02-21T21:42:01;44.05;;;13.52;;
51489;SDS011;57752;53.574;9.736;2023-02-21T21:47:07;50.60;;;14.60;;
51489;SDS011;57752;53.574;9.736;2023-02-21T21:52:08;56.40;;;16.17;;
51489;SDS011;57752;53.574;9.736;2023-02-21T21:57:08;48.05;;;13.82;;
51489;SDS011;57752;53.574;9.736;2023-02-21T22:02:09;44.50;;;14.40;;
51489;SDS011;57752;53.574;9.736;2023-02-21T22:07:10;78.05;;;18.55;;
51489;SDS011;57752;53.574;9.736;2023-02-21T22:12:15;102.28;;;25.10;;
51489;SDS011;57752;53.574;9.736;2023-02-21T22:17:15;79.32;;;22.55;;
51489;SDS011;57752;53.574;9.736;2023-02-21T22:22:15;89.15;;;23.45;;
51489;SDS011;57752;53.574;9.736;2023-02-21T22:27:16;93.95;;;23.30;;
51489;SDS011;57752;53.574;9.736;2023-02-21T22:32:16;88.05;;;22.27;;
51489;SDS011;57752;53.574;9.736;2023-02-21T22:37:16;102.57;;;25.00;;
51489;SDS011;57752;53.574;9.736;2023-02-21T22:42:17;115.15;;;25.13;;
51489;SDS011;57752;53.574;9.736;2023-02-21T22:47:18;112.78;;;24.80;;
51489;SDS011;57752;53.574;9.736;2023-02-21T22:52:18;153.90;;;24.77;;
51489;SDS011;57752;53.574;9.736;2023-02-21T22:57:18;105.10;;;22.52;;
51489;SDS011;57752;53.574;9.736;2023-02-21T23:02:18;100.25;;;22.25;;
51489;SDS011;57752;53.574;9.736;2023-02-21T23:12:23;116.60;;;22.95;;
51489;SDS011;57752;53.574;9.736;2023-02-21T23:17:23;128.98;;;26.05;;
51489;SDS011;57752;53.574;9.736;2023-02-21T23:22:23;96.40;;;20.77;;
51489;SDS011;57752;53.574;9.736;2023-02-21T23:27:24;139.07;;;25.73;;
51489;SDS011;57752;53.574;9.736;2023-02-21T23:32:24;109.75;;;23.00;;
51489;SDS011;57752;53.574;9.736;2023-02-21T23:37:24;107.55;;;22.70;;
51489;SDS011;57752;53.574;9.736;2023-02-21T23:42:24;101.63;;;22.55;;
51489;SDS011;57752;53.574;9.736;2023-02-21T23:47:24;117.28;;;22.95;;
51489;SDS011;57752;53.574;9.736;2023-02-21T23:52:24;89.07;;;22.45;;
51489;SDS011;57752;53.574;9.736;2023-02-21T23:57:24;95.43;;;21.63;;
